sensor_id;sensor_type;location;lat;lon;timestamp;pressure;altitude;pressure_sealevel;temperature;humidity
71149;BME280;59072;42.144;25.200;2023-02-18T00:00:14;100835.66;;;3.46;57.43
71149;BME280;59072;42.144;25.200;2023-02-18T00:02:41;100844.47;;;3.37;57.54
71149;BME280;59072;42.144;25.200;2023-02-18T00:05:07;100853.13;;;3.47;57.45
71149;BME280;59072;42.144;25.200;2023-02-18T00:07:36;100835.81;;;3.45;57.48
71149;BME280;59072;42.144;25.200;2023-02-18T00:10:06;100854.91;;;3.65;56.91
71149;BME280;59072;42.144;25.200;2023-02-18T00:12:32;100839.78;;;3.49;56.70
71149;BME280;59072;42.144;25.200;2023-02-18T00:14:57;100842.56;;;3.21;58.00
71149;BME280;59072;42.144;25.200;2023-02-18T00:17:23;100831.06;;;2.58;59.62
71149;BME280;59072;42.144;25.200;2023-02-18T00:19:48;100821.75;;;2.36;60.46
71149;BME280;59072;42.144;25.200;2023-02-18T00:22:14;100820.16;;;2.71;59.17
71149;BME280;59072;42.144;25.200;2023-02-18T00:24:40;100815.63;;;2.46;60.23
71149;BME280;59072;42.144;25.200;2023-02-18T00:27:12;100807.69;;;2.28;60.85
71149;BME280;59072;42.144;25.200;2023-02-18T00:29:38;100792.25;;;2.15;60.24
71149;BME280;59072;42.144;25.200;2023-02-18T00:32:03;100824.06;;;2.67;59.24
71149;BME280;59072;42.144;25.200;2023-02-18T00:34:29;100820.25;;;2.97;58.94
71149;BME280;59072;42.144;25.200;2023-02-18T00:36:54;100805.66;;;3.03;58.30
71149;BME280;59072;42.144;25.200;2023-02-18T00:39:20;100809.72;;;3.15;57.91
71149;BME280;59072;42.144;25.200;2023-02-18T00:41:45;100799.09;;;3.07;57.74
71149;BME280;59072;42.144;25.200;2023-02-18T00:44:13;100808.09;;;3.22;57.85
71149;BME280;59072;42.144;25.200;2023-02-18T00:46:39;100790.22;;;3.08;57.58
71149;BME280;59072;42.144;25.200;2023-02-18T00:49:07;100802.69;;;3.06;57.85
71149;BME280;59072;42.144;25.200;2023-02-18T00:51:33;100781.88;;;3.13;57.73
71149;BME280;59072;42.144;25.200;2023-02-18T00:53:58;100798.22;;;3.42;57.67
71149;BME280;59072;42.144;25.200;2023-02-18T00:56:24;100779.78;;;3.25;57.54
71149;BME280;59072;42.144;25.200;2023-02-18T00:58:49;100771.53;;;3.19;57.29
71149;BME280;59072;42.144;25.200;2023-02-18T01:01:15;100782.00;;;3.11;57.88
71149;BME280;59072;42.144;25.200;2023-02-18T01:03:41;100774.72;;;3.05;57.66
71149;BME280;59072;42.144;25.200;2023-02-18T01:06:13;100747.69;;;2.31;59.57
71149;BME280;59072;42.144;25.200;2023-02-18T01:08:39;100747.63;;;2.59;58.75
71149;BME280;59072;42.144;25.200;2023-02-18T01:11:05;100744.09;;;2.86;58.04
71149;BME280;59072;42.144;25.200;2023-02-18T01:13:32;100730.47;;;2.55;59.35
71149;BME280;59072;42.144;25.200;2023-02-18T01:15:57;100733.38;;;2.88;58.98
71149;BME280;59072;42.144;25.200;2023-02-18T01:18:24;100751.34;;;3.10;57.88
71149;BME280;59072;42.144;25.200;2023-02-18T01:20:50;100752.56;;;3.16;57.71
71149;BME280;59072;42.144;25.200;2023-02-18T01:23:16;100750.63;;;3.00;58.26
71149;BME280;59072;42.144;25.200;2023-02-18T01:25:42;100731.28;;;2.91;57.48
71149;BME280;59072;42.144;25.200;2023-02-18T01:28:10;100727.22;;;2.79;58.01
71149;BME280;59072;42.144;25.200;2023-02-18T01:30:36;100732.88;;;2.66;58.25
71149;BME280;59072;42.144;25.200;2023-02-18T01:33:04;100731.59;;;2.70;58.04
71149;BME280;59072;42.144;25.200;2023-02-18T01:35:29;100719.59;;;2.94;56.58
71149;BME280;59072;42.144;25.200;2023-02-18T01:37:55;100721.94;;;2.97;56.30
71149;BME280;59072;42.144;25.200;2023-02-18T01:40:23;100732.56;;;3.05;57.26
71149;BME280;59072;42.144;25.200;2023-02-18T01:42:49;100727.16;;;2.89;57.00
71149;BME280;59072;42.144;25.200;2023-02-18T01:50:26;100715.56;;;2.81;57.92
71149;BME280;59072;42.144;25.200;2023-02-18T01:52:51;100703.47;;;2.71;58.18
71149;BME280;59072;42.144;25.200;2023-02-18T01:55:17;100700.00;;;2.34;59.10
71149;BME280;59072;42.144;25.200;2023-02-18T01:57:42;100726.78;;;2.30;59.06
71149;BME280;59072;42.144;25.200;2023-02-18T02:00:11;100703.28;;;2.18;59.42
71149;BME280;59072;42.144;25.200;2023-02-18T02:02:43;100716.13;;;2.04;60.33
71149;BME280;59072;42.144;25.200;2023-02-18T02:05:09;100709.31;;;2.29;59.77
71149;BME280;59072;42.144;25.200;2023-02-18T02:07:35;100698.78;;;1.83;61.12
71149;BME280;59072;42.144;25.200;2023-02-18T02:10:04;100709.22;;;1.37;62.09
71149;BME280;59072;42.144;25.200;2023-02-18T02:15:51;100717.31;;;0.97;63.01
71149;BME280;59072;42.144;25.200;2023-02-18T02:32:49;100722.03;;;1.03;65.12
71149;BME280;59072;42.144;25.200;2023-02-18T02:35:22;100712.50;;;0.73;65.95
71149;BME280;59072;42.144;25.200;2023-02-18T02:38:03;100694.00;;;0.35;66.41
71149;BME280;59072;42.144;25.200;2023-02-18T02:46:10;100721.25;;;1.30;64.66
71149;BME280;59072;42.144;25.200;2023-02-18T02:51:24;100741.00;;;1.44;64.78
71149;BME280;59072;42.144;25.200;2023-02-18T02:53:52;100721.28;;;1.68;63.87
71149;BME280;59072;42.144;25.200;2023-02-18T02:56:23;100734.28;;;1.69;63.57
71149;BME280;59072;42.144;25.200;2023-02-18T02:59:01;100753.34;;;1.34;64.74
71149;BME280;59072;42.144;25.200;2023-02-18T03:09:22;100739.97;;;1.08;64.91
71149;BME280;59072;42.144;25.200;2023-02-18T03:12:11;100736.56;;;0.68;66.52
71149;BME280;59072;42.144;25.200;2023-02-18T03:14:46;100732.66;;;0.53;67.36
71149;BME280;59072;42.144;25.200;2023-02-18T03:17:22;100732.66;;;0.92;66.71
71149;BME280;59072;42.144;25.200;2023-02-18T03:19:55;100716.44;;;1.35;65.85
71149;BME280;59072;42.144;25.200;2023-02-18T03:22:28;100701.03;;;0.84;66.47
71149;BME280;59072;42.144;25.200;2023-02-18T03:24:56;100707.34;;;1.10;66.92
71149;BME280;59072;42.144;25.200;2023-02-18T03:27:52;100691.47;;;1.49;65.16
71149;BME280;59072;42.144;25.200;2023-02-18T03:30:27;100680.31;;;0.90;66.43
71149;BME280;59072;42.144;25.200;2023-02-18T03:32:59;100695.13;;;1.29;65.88
71149;BME280;59072;42.144;25.200;2023-02-18T03:35:27;100712.88;;;1.07;66.19
71149;BME280;59072;42.144;25.200;2023-02-18T03:38:03;100705.69;;;1.09;66.49
71149;BME280;59072;42.144;25.200;2023-02-18T03:40:31;100725.25;;;1.44;65.73
71149;BME280;59072;42.144;25.200;2023-02-18T03:43:00;100716.09;;;1.48;65.29
71149;BME280;59072;42.144;25.200;2023-02-18T03:45:26;100690.72;;;1.29;65.18
71149;BME280;59072;42.144;25.200;2023-02-18T03:47:52;100704.63;;;1.49;64.24
71149;BME280;59072;42.144;25.200;2023-02-18T03:50:17;100723.03;;;1.49;64.93
71149;BME280;59072;42.144;25.200;2023-02-18T03:52:43;100735.66;;;1.16;65.85
71149;BME280;59072;42.144;25.200;2023-02-18T03:55:09;100717.56;;;1.13;66.30
71149;BME280;59072;42.144;25.200;2023-02-18T03:57:34;100713.09;;;1.33;65.07
71149;BME280;59072;42.144;25.200;2023-02-18T04:00:00;100727.84;;;1.54;64.60
71149;BME280;59072;42.144;25.200;2023-02-18T04:02:25;100722.91;;;1.41;64.58
71149;BME280;59072;42.144;25.200;2023-02-18T04:04:51;100725.78;;;1.48;64.45
71149;BME280;59072;42.144;25.200;2023-02-18T04:07:16;100720.41;;;1.49;64.60
71149;BME280;59072;42.144;25.200;2023-02-18T04:09:42;100725.75;;;1.57;64.55
71149;BME280;59072;42.144;25.200;2023-02-18T04:12:07;100731.88;;;1.48;65.02
71149;BME280;59072;42.144;25.200;2023-02-18T04:14:33;100733.75;;;1.66;64.26
71149;BME280;59072;42.144;25.200;2023-02-18T04:16:59;100711.81;;;1.47;63.46
71149;BME280;59072;42.144;25.200;2023-02-18T04:19:25;100737.78;;;1.13;64.63
71149;BME280;59072;42.144;25.200;2023-02-18T04:21:51;100731.72;;;0.64;66.79
71149;BME280;59072;42.144;25.200;2023-02-18T04:24:16;100725.75;;;0.71;66.64
71149;BME280;59072;42.144;25.200;2023-02-18T04:26:41;100743.31;;;0.71;66.77
71149;BME280;59072;42.144;25.200;2023-02-18T04:29:07;100745.09;;;0.51;67.02
71149;BME280;59072;42.144;25.200;2023-02-18T04:31:32;100732.41;;;0.46;66.39
71149;BME280;59072;42.144;25.200;2023-02-18T04:33:58;100730.91;;;0.53;66.96
71149;BME280;59072;42.144;25.200;2023-02-18T04:36:23;100730.03;;;0.53;67.75
71149;BME280;59072;42.144;25.200;2023-02-18T04:38:49;100735.03;;;0.66;66.87
71149;BME280;59072;42.144;25.200;2023-02-18T04:41:14;100761.00;;;1.08;66.25
71149;BME280;59072;42.144;25.200;2023-02-18T04:43:40;100749.53;;;0.99;65.58
71149;BME280;59072;42.144;25.200;2023-02-18T04:46:05;100760.84;;;0.99;65.54
71149;BME280;59072;42.144;25.200;2023-02-18T04:48:30;100745.09;;;0.99;65.64
71149;BME280;59072;42.144;25.200;2023-02-18T04:50:56;100733.78;;;0.60;66.19
71149;BME280;59072;42.144;25.200;2023-02-18T04:53:21;100734.47;;;0.82;65.73
71149;BME280;59072;42.144;25.200;2023-02-18T04:55:51;100755.75;;;0.78;66.27
71149;BME280;59072;42.144;25.200;2023-02-18T04:58:17;100755.06;;;1.06;65.30
71149;BME280;59072;42.144;25.200;2023-02-18T05:00:42;100740.00;;;0.69;66.64
71149;BME280;59072;42.144;25.200;2023-02-18T05:03:08;100731.00;;;0.71;67.19
71149;BME280;59072;42.144;25.200;2023-02-18T05:05:33;100750.19;;;1.20;65.87
71149;BME280;59072;42.144;25.200;2023-02-18T05:08:00;100741.88;;;1.35;64.94
71149;BME280;59072;42.144;25.200;2023-02-18T05:10:25;100752.09;;;1.38;64.69
71149;BME280;59072;42.144;25.200;2023-02-18T05:12:51;100731.72;;;1.59;64.24
71149;BME280;59072;42.144;25.200;2023-02-18T05:15:16;100744.63;;;1.43;64.15
71149;BME280;59072;42.144;25.200;2023-02-18T05:17:41;100712.50;;;0.73;66.27
71149;BME280;59072;42.144;25.200;2023-02-18T05:20:07;100760.03;;;1.09;66.20
71149;BME280;59072;42.144;25.200;2023-02-18T05:22:33;100748.53;;;1.29;65.30
71149;BME280;59072;42.144;25.200;2023-02-18T05:24:58;100752.44;;;0.76;66.63
71149;BME280;59072;42.144;25.200;2023-02-18T05:27:24;100736.38;;;0.40;68.11
71149;BME280;59072;42.144;25.200;2023-02-18T05:29:49;100734.97;;;0.17;68.78
71149;BME280;59072;42.144;25.200;2023-02-18T05:32:15;100730.59;;;0.27;69.46
71149;BME280;59072;42.144;25.200;2023-02-18T05:34:40;100726.31;;;0.85;65.89
71149;BME280;59072;42.144;25.200;2023-02-18T05:37:08;100722.72;;;0.95;65.73
71149;BME280;59072;42.144;25.200;2023-02-18T05:39:34;100747.03;;;0.97;65.74
71149;BME280;59072;42.144;25.200;2023-02-18T05:41:59;100727.31;;;0.74;66.77
71149;BME280;59072;42.144;25.200;2023-02-18T05:44:24;100739.72;;;0.91;66.42
71149;BME280;59072;42.144;25.200;2023-02-18T05:47:01;100744.13;;;1.10;65.19
71149;BME280;59072;42.144;25.200;2023-02-18T05:49:28;100769.13;;;1.34;65.40
71149;BME280;59072;42.144;25.200;2023-02-18T05:51:54;100744.53;;;0.96;66.27
71149;BME280;59072;42.144;25.200;2023-02-18T05:54:19;100764.59;;;0.58;68.99
71149;BME280;59072;42.144;25.200;2023-02-18T05:56:48;100763.50;;;0.60;68.64
71149;BME280;59072;42.144;25.200;2023-02-18T05:59:13;100768.31;;;1.04;67.22
71149;BME280;59072;42.144;25.200;2023-02-18T06:01:39;100772.84;;;1.41;66.29
71149;BME280;59072;42.144;25.200;2023-02-18T06:04:05;100751.50;;;1.54;65.61
71149;BME280;59072;42.144;25.200;2023-02-18T06:06:30;100772.16;;;1.86;65.00
71149;BME280;59072;42.144;25.200;2023-02-18T06:08:56;100765.16;;;2.05;64.64
71149;BME280;59072;42.144;25.200;2023-02-18T06:11:21;100759.59;;;2.08;63.93
71149;BME280;59072;42.144;25.200;2023-02-18T06:13:47;100772.44;;;2.38;63.26
71149;BME280;59072;42.144;25.200;2023-02-18T06:16:12;100764.00;;;2.53;64.04
71149;BME280;59072;42.144;25.200;2023-02-18T06:18:37;100764.34;;;2.50;63.80
71149;BME280;59072;42.144;25.200;2023-02-18T06:21:03;100766.31;;;2.66;63.27
71149;BME280;59072;42.144;25.200;2023-02-18T06:23:29;100761.69;;;2.86;62.43
71149;BME280;59072;42.144;25.200;2023-02-18T06:25:54;100758.78;;;2.89;62.44
71149;BME280;59072;42.144;25.200;2023-02-18T06:28:20;100753.50;;;3.07;62.24
71149;BME280;59072;42.144;25.200;2023-02-18T06:30:48;100753.03;;;3.37;62.14
71149;BME280;59072;42.144;25.200;2023-02-18T06:33:14;100754.34;;;3.68;60.62
71149;BME280;59072;42.144;25.200;2023-02-18T06:35:39;100752.38;;;3.70;61.63
71149;BME280;59072;42.144;25.200;2023-02-18T06:38:05;100764.28;;;3.74;61.00
71149;BME280;59072;42.144;25.200;2023-02-18T06:40:31;100749.78;;;3.78;61.37
71149;BME280;59072;42.144;25.200;2023-02-18T06:42:56;100749.91;;;4.02;59.73
71149;BME280;59072;42.144;25.200;2023-02-18T06:45:22;100744.16;;;4.07;59.84
71149;BME280;59072;42.144;25.200;2023-02-18T06:47:47;100724.06;;;3.80;61.16
71149;BME280;59072;42.144;25.200;2023-02-18T06:50:13;100708.13;;;3.55;63.26
71149;BME280;59072;42.144;25.200;2023-02-18T06:52:39;100719.38;;;3.66;64.79
71149;BME280;59072;42.144;25.200;2023-02-18T06:55:05;100695.19;;;3.36;65.98
71149;BME280;59072;42.144;25.200;2023-02-18T06:57:31;100714.44;;;3.62;66.32
71149;BME280;59072;42.144;25.200;2023-02-18T06:59:59;100726.47;;;3.99;64.32
71149;BME280;59072;42.144;25.200;2023-02-18T07:02:26;100715.63;;;4.11;63.18
71149;BME280;59072;42.144;25.200;2023-02-18T07:04:51;100714.50;;;4.21;64.84
71149;BME280;59072;42.144;25.200;2023-02-18T07:07:17;100693.25;;;4.31;63.10
71149;BME280;59072;42.144;25.200;2023-02-18T07:09:42;100706.47;;;4.56;64.01
71149;BME280;59072;42.144;25.200;2023-02-18T07:12:08;100703.50;;;4.51;63.89
71149;BME280;59072;42.144;25.200;2023-02-18T07:14:33;100703.84;;;4.64;63.56
71149;BME280;59072;42.144;25.200;2023-02-18T07:16:58;100692.25;;;4.57;64.87
71149;BME280;59072;42.144;25.200;2023-02-18T07:19:24;100692.28;;;4.65;64.90
71149;BME280;59072;42.144;25.200;2023-02-18T07:21:49;100710.91;;;4.88;63.51
71149;BME280;59072;42.144;25.200;2023-02-18T07:24:15;100709.59;;;5.00;61.18
71149;BME280;59072;42.144;25.200;2023-02-18T07:26:40;100741.44;;;5.48;59.65
71149;BME280;59072;42.144;25.200;2023-02-18T07:29:05;100731.09;;;5.78;59.13
71149;BME280;59072;42.144;25.200;2023-02-18T07:31:31;100726.81;;;5.77;58.30
71149;BME280;59072;42.144;25.200;2023-02-18T07:33:56;100703.91;;;5.92;58.47
71149;BME280;59072;42.144;25.200;2023-02-18T07:36:21;100699.59;;;5.99;56.61
71149;BME280;59072;42.144;25.200;2023-02-18T07:38:47;100693.53;;;6.22;55.58
71149;BME280;59072;42.144;25.200;2023-02-18T07:41:17;100686.94;;;6.41;55.71
71149;BME280;59072;42.144;25.200;2023-02-18T07:43:43;100684.09;;;6.66;55.28
71149;BME280;59072;42.144;25.200;2023-02-18T07:46:12;100691.81;;;6.75;54.45
71149;BME280;59072;42.144;25.200;2023-02-18T07:48:37;100681.47;;;7.03;54.66
71149;BME280;59072;42.144;25.200;2023-02-18T07:51:08;100672.06;;;7.31;55.22
71149;BME280;59072;42.144;25.200;2023-02-18T07:53:34;100661.00;;;7.57;53.30
71149;BME280;59072;42.144;25.200;2023-02-18T07:56:01;100671.38;;;7.88;52.77
71149;BME280;59072;42.144;25.200;2023-02-18T07:58:28;100678.94;;;8.06;51.34
71149;BME280;59072;42.144;25.200;2023-02-18T08:00:55;100650.88;;;8.18;50.29
71149;BME280;59072;42.144;25.200;2023-02-18T08:03:23;100653.34;;;8.20;51.44
71149;BME280;59072;42.144;25.200;2023-02-18T08:05:53;100655.25;;;8.26;51.50
71149;BME280;59072;42.144;25.200;2023-02-18T08:08:24;100659.66;;;8.19;51.88
71149;BME280;59072;42.144;25.200;2023-02-18T08:10:50;100656.38;;;8.17;52.87
71149;BME280;59072;42.144;25.200;2023-02-18T08:13:19;100659.41;;;8.35;51.60
71149;BME280;59072;42.144;25.200;2023-02-18T08:15:44;100659.53;;;8.42;52.04
71149;BME280;59072;42.144;25.200;2023-02-18T08:18:18;100663.00;;;8.42;52.70
71149;BME280;59072;42.144;25.200;2023-02-18T08:20:45;100664.00;;;8.41;51.98
71149;BME280;59072;42.144;25.200;2023-02-18T08:23:12;100639.69;;;8.66;48.36
71149;BME280;59072;42.144;25.200;2023-02-18T08:25:38;100654.22;;;8.92;46.09
71149;BME280;59072;42.144;25.200;2023-02-18T08:28:04;100665.69;;;9.27;46.26
71149;BME280;59072;42.144;25.200;2023-02-18T08:30:29;100669.03;;;9.71;45.54
71149;BME280;59072;42.144;25.200;2023-02-18T08:32:54;100665.59;;;9.90;44.92
71149;BME280;59072;42.144;25.200;2023-02-18T08:35:20;100665.84;;;9.95;45.49
71149;BME280;59072;42.144;25.200;2023-02-18T08:37:46;100660.09;;;10.05;45.59
71149;BME280;59072;42.144;25.200;2023-02-18T08:40:12;100663.63;;;10.05;45.19
71149;BME280;59072;42.144;25.200;2023-02-18T08:42:38;100662.78;;;10.05;44.43
71149;BME280;59072;42.144;25.200;2023-02-18T08:45:04;100654.22;;;10.23;44.93
71149;BME280;59072;42.144;25.200;2023-02-18T08:47:30;100652.78;;;10.27;43.83
71149;BME280;59072;42.144;25.200;2023-02-18T08:49:55;100653.41;;;10.29;44.29
71149;BME280;59072;42.144;25.200;2023-02-18T08:52:23;100653.25;;;10.64;43.37
71149;BME280;59072;42.144;25.200;2023-02-18T08:54:49;100649.78;;;10.83;42.63
71149;BME280;59072;42.144;25.200;2023-02-18T08:57:17;100643.97;;;11.26;41.82
71149;BME280;59072;42.144;25.200;2023-02-18T08:59:45;100626.28;;;11.39;41.94
71149;BME280;59072;42.144;25.200;2023-02-18T09:02:12;100643.97;;;11.85;40.65
71149;BME280;59072;42.144;25.200;2023-02-18T09:04:38;100627.09;;;11.98;40.28
71149;BME280;59072;42.144;25.200;2023-02-18T09:07:04;100608.41;;;11.91;41.02
71149;BME280;59072;42.144;25.200;2023-02-18T09:09:32;100635.84;;;12.12;40.41
71149;BME280;59072;42.144;25.200;2023-02-18T09:11:57;100630.75;;;12.03;40.47
71149;BME280;59072;42.144;25.200;2023-02-18T09:14:23;100632.56;;;12.41;40.38
71149;BME280;59072;42.144;25.200;2023-02-18T09:16:48;100633.00;;;12.89;38.39
71149;BME280;59072;42.144;25.200;2023-02-18T09:19:15;100644.31;;;13.09;38.12
71149;BME280;59072;42.144;25.200;2023-02-18T09:21:40;100634.13;;;13.43;38.39
71149;BME280;59072;42.144;25.200;2023-02-18T09:24:09;100644.97;;;13.66;38.87
71149;BME280;59072;42.144;25.200;2023-02-18T09:26:35;100646.94;;;14.20;37.66
71149;BME280;59072;42.144;25.200;2023-02-18T09:29:00;100632.84;;;14.36;37.25
71149;BME280;59072;42.144;25.200;2023-02-18T09:31:26;100619.59;;;14.41;37.65
71149;BME280;59072;42.144;25.200;2023-02-18T09:33:56;100640.06;;;14.66;36.99
71149;BME280;59072;42.144;25.200;2023-02-18T09:36:22;100622.34;;;14.65;37.47
71149;BME280;59072;42.144;25.200;2023-02-18T09:38:51;100632.84;;;14.90;37.09
71149;BME280;59072;42.144;25.200;2023-02-18T09:41:40;100625.84;;;15.13;37.41
71149;BME280;59072;42.144;25.200;2023-02-18T09:47:30;100620.00;;;15.80;35.91
71149;BME280;59072;42.144;25.200;2023-02-18T09:50:05;100604.75;;;16.31;35.28
71149;BME280;59072;42.144;25.200;2023-02-18T09:52:33;100617.66;;;16.46;34.28
71149;BME280;59072;42.144;25.200;2023-02-18T09:55:00;100623.22;;;16.90;31.28
71149;BME280;59072;42.144;25.200;2023-02-18T09:57:40;100617.00;;;16.90;30.29
71149;BME280;59072;42.144;25.200;2023-02-18T10:00:13;100622.78;;;16.98;28.71
71149;BME280;59072;42.144;25.200;2023-02-18T10:02:42;100624.78;;;17.25;29.47
71149;BME280;59072;42.144;25.200;2023-02-18T10:05:15;100611.34;;;17.52;28.66
71149;BME280;59072;42.144;25.200;2023-02-18T10:07:41;100593.81;;;17.50;28.73
71149;BME280;59072;42.144;25.200;2023-02-18T10:10:42;100591.78;;;17.40;28.61
71149;BME280;59072;42.144;25.200;2023-02-18T10:13:14;100582.00;;;17.12;28.03
71149;BME280;59072;42.144;25.200;2023-02-18T10:15:41;100560.75;;;17.15;28.51
71149;BME280;59072;42.144;25.200;2023-02-18T10:21:02;100575.97;;;17.48;27.99
71149;BME280;59072;42.144;25.200;2023-02-18T10:23:31;100570.53;;;17.43;27.54
71149;BME280;59072;42.144;25.200;2023-02-18T10:25:58;100567.72;;;17.82;28.17
71149;BME280;59072;42.144;25.200;2023-02-18T10:28:25;100556.41;;;17.58;27.27
71149;BME280;59072;42.144;25.200;2023-02-18T10:31:07;100566.59;;;17.51;27.87
71149;BME280;59072;42.144;25.200;2023-02-18T10:36:29;100545.47;;;17.70;27.06
71149;BME280;59072;42.144;25.200;2023-02-18T10:42:01;100547.47;;;18.39;27.33
71149;BME280;59072;42.144;25.200;2023-02-18T10:44:58;100542.41;;;18.91;26.00
71149;BME280;59072;42.144;25.200;2023-02-18T10:52:55;100523.72;;;18.41;26.80
71149;BME280;59072;42.144;25.200;2023-02-18T10:55:37;100511.56;;;18.44;26.78
71149;BME280;59072;42.144;25.200;2023-02-18T10:58:05;100501.75;;;18.70;26.76
71149;BME280;59072;42.144;25.200;2023-02-18T11:00:48;100503.34;;;18.71;26.55
71149;BME280;59072;42.144;25.200;2023-02-18T11:03:23;100506.19;;;18.92;26.94
71149;BME280;59072;42.144;25.200;2023-02-18T11:05:54;100493.00;;;19.00;26.30
71149;BME280;59072;42.144;25.200;2023-02-18T11:08:24;100507.69;;;18.72;25.83
71149;BME280;59072;42.144;25.200;2023-02-18T11:10:51;100502.91;;;18.84;26.20
71149;BME280;59072;42.144;25.200;2023-02-18T11:13:28;100494.78;;;18.79;26.26
71149;BME280;59072;42.144;25.200;2023-02-18T11:15:58;100479.78;;;19.09;26.24
71149;BME280;59072;42.144;25.200;2023-02-18T11:21:01;100500.97;;;19.53;24.97
71149;BME280;59072;42.144;25.200;2023-02-18T11:23:29;100476.91;;;19.52;25.46
71149;BME280;59072;42.144;25.200;2023-02-18T11:30:58;100470.66;;;20.59;23.89
71149;BME280;59072;42.144;25.200;2023-02-18T11:35:57;100470.84;;;20.83;24.40
71149;BME280;59072;42.144;25.200;2023-02-18T11:38:37;100472.78;;;20.72;24.46
71149;BME280;59072;42.144;25.200;2023-02-18T11:41:08;100467.41;;;20.52;24.47
71149;BME280;59072;42.144;25.200;2023-02-18T11:43:35;100459.34;;;20.21;25.23
71149;BME280;59072;42.144;25.200;2023-02-18T11:48:33;100455.03;;;20.04;25.01
71149;BME280;59072;42.144;25.200;2023-02-18T11:51:00;100437.69;;;20.05;24.75
71149;BME280;59072;42.144;25.200;2023-02-18T11:53:32;100445.84;;;19.90;25.08
71149;BME280;59072;42.144;25.200;2023-02-18T11:56:01;100443.66;;;20.13;25.13
71149;BME280;59072;42.144;25.200;2023-02-18T11:58:34;100430.31;;;20.42;24.97
71149;BME280;59072;42.144;25.200;2023-02-18T12:01:02;100423.78;;;20.58;24.71
71149;BME280;59072;42.144;25.200;2023-02-18T12:03:47;100429.41;;;20.72;24.70
71149;BME280;59072;42.144;25.200;2023-02-18T12:06:21;100415.84;;;21.22;24.22
71149;BME280;59072;42.144;25.200;2023-02-18T12:08:54;100416.97;;;21.60;23.83
71149;BME280;59072;42.144;25.200;2023-02-18T12:11:32;100417.75;;;21.95;24.35
71149;BME280;59072;42.144;25.200;2023-02-18T12:14:01;100407.84;;;21.41;23.88
71149;BME280;59072;42.144;25.200;2023-02-18T12:16:36;100415.47;;;21.39;23.67
71149;BME280;59072;42.144;25.200;2023-02-18T12:24:44;100387.22;;;21.50;24.50
71149;BME280;59072;42.144;25.200;2023-02-18T12:27:36;100374.13;;;21.86;24.04
71149;BME280;59072;42.144;25.200;2023-02-18T12:32:48;100372.47;;;21.22;25.52
71149;BME280;59072;42.144;25.200;2023-02-18T12:43:42;100372.47;;;20.77;26.29
71149;BME280;59072;42.144;25.200;2023-02-18T12:46:58;100369.31;;;20.60;26.90
71149;BME280;59072;42.144;25.200;2023-02-18T12:49:43;100372.72;;;20.81;26.28
71149;BME280;59072;42.144;25.200;2023-02-18T13:06:18;100346.56;;;20.51;25.82
71149;BME280;59072;42.144;25.200;2023-02-18T13:11:53;100341.31;;;20.75;25.45
71149;BME280;59072;42.144;25.200;2023-02-18T13:14:24;100344.38;;;20.58;25.96
71149;BME280;59072;42.144;25.200;2023-02-18T13:16:54;100335.22;;;21.33;25.43
71149;BME280;59072;42.144;25.200;2023-02-18T13:22:05;100342.56;;;22.15;25.42
71149;BME280;59072;42.144;25.200;2023-02-18T13:30:37;100343.31;;;21.38;26.85
71149;BME280;59072;42.144;25.200;2023-02-18T13:35:59;100337.72;;;22.12;24.81
71149;BME280;59072;42.144;25.200;2023-02-18T13:41:25;100348.41;;;24.34;22.88
71149;BME280;59072;42.144;25.200;2023-02-18T13:43:53;100346.94;;;24.78;22.81
71149;BME280;59072;42.144;25.200;2023-02-18T13:46:21;100316.00;;;25.42;21.50
71149;BME280;59072;42.144;25.200;2023-02-18T13:51:28;100346.81;;;26.05;20.83
71149;BME280;59072;42.144;25.200;2023-02-18T13:56:52;100342.22;;;26.14;20.09
71149;BME280;59072;42.144;25.200;2023-02-18T13:59:35;100346.59;;;25.61;20.72
71149;BME280;59072;42.144;25.200;2023-02-18T14:09:52;100322.38;;;24.42;22.08
71149;BME280;59072;42.144;25.200;2023-02-18T14:12:36;100346.44;;;24.76;21.64
71149;BME280;59072;42.144;25.200;2023-02-18T14:25:20;100340.84;;;22.48;24.35
71149;BME280;59072;42.144;25.200;2023-02-18T14:27:50;100331.31;;;21.78;25.29
71149;BME280;59072;42.144;25.200;2023-02-18T14:30:23;100329.44;;;21.74;25.51
71149;BME280;59072;42.144;25.200;2023-02-18T14:32:51;100329.63;;;21.53;25.22
71149;BME280;59072;42.144;25.200;2023-02-18T14:35:54;100330.91;;;21.26;25.79
71149;BME280;59072;42.144;25.200;2023-02-18T14:51:56;100325.91;;;20.70;26.54
71149;BME280;59072;42.144;25.200;2023-02-18T14:54:24;100325.91;;;20.65;26.46
71149;BME280;59072;42.144;25.200;2023-02-18T14:57:03;100342.03;;;20.31;26.79
71149;BME280;59072;42.144;25.200;2023-02-18T14:59:36;100332.44;;;19.68;27.45
71149;BME280;59072;42.144;25.200;2023-02-18T15:02:08;100322.97;;;19.86;27.48
71149;BME280;59072;42.144;25.200;2023-02-18T15:04:39;100331.34;;;19.79;27.44
71149;BME280;59072;42.144;25.200;2023-02-18T15:07:08;100338.16;;;19.72;27.47
71149;BME280;59072;42.144;25.200;2023-02-18T15:09:34;100322.16;;;19.55;28.08
71149;BME280;59072;42.144;25.200;2023-02-18T15:12:03;100340.56;;;19.47;28.31
71149;BME280;59072;42.144;25.200;2023-02-18T15:14:33;100335.69;;;19.44;28.28
71149;BME280;59072;42.144;25.200;2023-02-18T15:17:00;100328.38;;;19.24;28.13
71149;BME280;59072;42.144;25.200;2023-02-18T15:19:32;100326.78;;;19.13;28.32
71149;BME280;59072;42.144;25.200;2023-02-18T15:22:00;100338.69;;;19.27;28.37
71149;BME280;59072;42.144;25.200;2023-02-18T15:24:34;100343.28;;;19.27;28.61
71149;BME280;59072;42.144;25.200;2023-02-18T15:27:05;100348.94;;;19.46;30.75